createdAt,value
2022-08-07T00:02:37.155Z,58.00
2022-08-07T00:03:47.248Z,58.00
2022-08-07T00:05:46.382Z,58.00
2022-08-07T00:07:46.303Z,59.00
2022-08-07T00:10:04.713Z,59.00
2022-08-07T00:11:53.882Z,59.00
2022-08-07T00:13:46.285Z,59.00
2022-08-07T00:15:51.051Z,59.00
2022-08-07T00:17:46.300Z,59.00
2022-08-07T00:20:00.993Z,59.00
2022-08-07T00:21:55.886Z,59.00
2022-08-07T00:23:46.366Z,60.00
2022-08-07T00:25:52.501Z,60.00
2022-08-07T00:27:52.370Z,61.00
2022-08-07T00:29:46.331Z,61.00
2022-08-07T00:31:46.331Z,61.00
2022-08-07T00:33:47.800Z,61.00
2022-08-07T00:35:49.471Z,61.00
2022-08-07T00:37:47.988Z,61.00
2022-08-07T00:39:54.593Z,61.00
2022-08-07T00:41:53.633Z,61.00
2022-08-07T00:44:01.433Z,61.00
2022-08-07T00:45:46.455Z,61.00
2022-08-07T00:48:09.324Z,61.00
2022-08-07T00:50:20.697Z,61.00
2022-08-07T00:51:56.592Z,61.00
2022-08-07T00:53:50.504Z,61.00
2022-08-07T00:56:02.528Z,61.00
2022-08-07T00:57:55.792Z,61.00
2022-08-07T00:59:46.333Z,61.00
2022-08-07T01:01:46.379Z,61.00
2022-08-07T01:03:55.420Z,62.00
2022-08-07T01:05:51.585Z,62.00
2022-08-07T01:07:46.330Z,62.00
2022-08-07T01:10:06.557Z,62.00
2022-08-07T01:12:09.180Z,62.00
2022-08-07T01:13:55.555Z,63.00
2022-08-07T01:16:01.025Z,63.00
2022-08-07T01:17:46.357Z,63.00
2022-08-07T01:19:54.390Z,63.00
2022-08-07T01:21:46.640Z,63.00
2022-08-07T01:23:46.774Z,63.00
2022-08-07T01:25:55.798Z,63.00
2022-08-07T01:27:51.481Z,63.00
2022-08-07T01:29:46.414Z,64.00
2022-08-07T01:31:48.690Z,64.00
2022-08-07T01:33:54.034Z,64.00
2022-08-07T01:35:53.473Z,64.00
2022-08-07T01:37:46.366Z,64.00
2022-08-07T01:39:47.105Z,65.00
2022-08-07T01:42:07.371Z,65.00
2022-08-07T01:43:46.337Z,65.00
2022-08-07T01:45:46.670Z,65.00
2022-08-07T01:48:21.340Z,65.00
2022-08-07T01:50:16.358Z,65.00
2022-08-07T01:52:16.374Z,65.00
2022-08-07T01:54:21.950Z,65.00
2022-08-07T01:56:16.367Z,65.00
2022-08-07T01:58:29.585Z,66.00
2022-08-07T02:00:16.366Z,66.00
2022-08-07T02:03:11.409Z,66.00
2022-08-07T02:04:16.423Z,66.00
2022-08-07T02:06:31.722Z,66.00
2022-08-07T02:08:16.377Z,66.00
2022-08-07T02:10:16.378Z,66.00
2022-08-07T02:12:17.670Z,66.00
2022-08-07T02:14:35.870Z,66.00
2022-08-07T02:16:16.386Z,66.00
2022-08-07T02:18:16.386Z,66.00
2022-08-07T02:20:17.473Z,66.00
2022-08-07T02:22:18.544Z,66.00
2022-08-07T02:24:17.635Z,66.00
2022-08-07T02:26:32.484Z,66.00
2022-08-07T02:28:24.792Z,66.00
2022-08-07T02:30:16.387Z,67.00
2022-08-07T02:32:16.374Z,67.00
2022-08-07T02:34:18.049Z,67.00
2022-08-07T02:36:29.207Z,68.00
2022-08-07T02:38:16.406Z,68.00
2022-08-07T02:40:35.116Z,68.00
2022-08-07T02:42:16.571Z,68.00
2022-08-07T02:44:16.419Z,68.00
2022-08-07T02:46:16.420Z,68.00
2022-08-07T02:48:16.407Z,68.00
2022-08-07T02:50:16.398Z,69.00
2022-08-07T02:52:16.392Z,68.00
2022-08-07T02:54:16.419Z,68.00
2022-08-07T02:56:21.154Z,68.00
2022-08-07T02:58:16.422Z,68.00
2022-08-07T03:00:16.410Z,68.00
2022-08-07T03:02:16.480Z,68.00
2022-08-07T03:04:16.429Z,68.00
2022-08-07T03:06:16.795Z,68.00
2022-08-07T03:08:16.448Z,68.00
2022-08-07T03:10:16.423Z,68.00
2022-08-07T03:12:22.427Z,68.00
2022-08-07T03:14:16.411Z,68.00
2022-08-07T03:16:16.410Z,69.00
2022-08-07T03:18:18.583Z,69.00
2022-08-07T03:20:16.420Z,69.00
2022-08-07T03:22:19.030Z,69.00
2022-08-07T03:24:20.229Z,69.00
2022-08-07T03:26:23.401Z,69.00
2022-08-07T03:28:37.749Z,69.00
2022-08-07T03:30:16.438Z,70.00
2022-08-07T03:32:16.431Z,71.00
2022-08-07T03:34:18.155Z,71.00
2022-08-07T03:36:16.426Z,71.00
2022-08-07T03:38:16.441Z,71.00
2022-08-07T03:40:17.039Z,72.00
2022-08-07T03:42:16.435Z,72.00
2022-08-07T03:44:53.184Z,72.00
2022-08-07T03:47:11.021Z,73.00
2022-08-07T03:49:02.645Z,73.00
2022-08-07T03:50:55.724Z,73.00
2022-08-07T03:52:46.432Z,73.00
2022-08-07T03:54:54.568Z,73.00
2022-08-07T03:57:03.605Z,73.00
2022-08-07T03:59:09.635Z,73.00
2022-08-07T04:00:53.326Z,73.00
2022-08-07T04:02:47.085Z,73.00
2022-08-07T04:04:46.455Z,73.00
2022-08-07T04:06:46.560Z,73.00
2022-08-07T04:08:46.445Z,73.00
2022-08-07T04:10:54.563Z,73.00
2022-08-07T04:12:46.502Z,73.00
2022-08-07T04:14:48.996Z,73.00
2022-08-07T04:16:58.485Z,73.00
2022-08-07T04:18:59.316Z,74.00
2022-08-07T04:20:54.565Z,74.00
2022-08-07T04:22:53.672Z,74.00
2022-08-07T04:24:46.482Z,74.00
2022-08-07T04:26:46.465Z,74.00
2022-08-07T04:28:46.464Z,74.00
2022-08-07T04:30:55.492Z,74.00
2022-08-07T04:32:47.919Z,74.00
2022-08-07T04:34:46.487Z,74.00
2022-08-07T04:36:49.534Z,74.00
2022-08-07T04:38:46.469Z,74.00
2022-08-07T04:40:52.599Z,74.00
2022-08-07T04:42:46.481Z,74.00
2022-08-07T04:44:54.692Z,74.00
2022-08-07T04:47:04.731Z,74.00
2022-08-07T04:48:46.468Z,74.00
2022-08-07T04:50:52.168Z,74.00
2022-08-07T04:52:46.739Z,74.00
2022-08-07T04:54:50.555Z,74.00
2022-08-07T04:58:13.073Z,75.00
2022-08-07T04:59:18.178Z,75.00
2022-08-07T05:00:46.616Z,75.00
2022-08-07T05:02:47.679Z,75.00
2022-08-07T05:04:50.163Z,75.00
2022-08-07T05:06:51.660Z,75.00
2022-08-07T05:09:01.187Z,75.00
2022-08-07T05:10:46.593Z,75.00
2022-08-07T05:12:51.510Z,76.00
2022-08-07T05:14:54.684Z,76.00
2022-08-07T05:16:46.508Z,76.00
2022-08-07T05:18:46.497Z,76.00
2022-08-07T05:20:46.498Z,75.00
2022-08-07T05:22:46.488Z,75.00
2022-08-07T05:24:46.519Z,74.00
2022-08-07T05:26:46.517Z,74.00
2022-08-07T05:28:48.714Z,74.00
2022-08-07T05:30:47.128Z,74.00
2022-08-07T05:32:46.506Z,73.00
2022-08-07T05:34:46.522Z,73.00
2022-08-07T05:36:49.102Z,73.00
2022-08-07T05:38:59.823Z,73.00
2022-08-07T05:41:16.750Z,72.00
2022-08-07T05:43:16.551Z,71.00
2022-08-07T05:45:46.307Z,71.00
2022-08-07T05:47:18.813Z,70.00
2022-08-07T05:49:16.530Z,70.00
2022-08-07T05:51:16.515Z,69.00
2022-08-07T05:54:11.954Z,69.00
2022-08-07T05:55:16.521Z,69.00
2022-08-07T05:57:16.549Z,69.00
2022-08-07T05:59:16.540Z,69.00
2022-08-07T06:01:16.662Z,68.00
2022-08-07T06:03:16.525Z,68.00
2022-08-07T06:05:16.546Z,67.00
2022-08-07T06:07:22.721Z,67.00
2022-08-07T06:09:16.548Z,67.00
2022-08-07T06:11:16.544Z,66.00
2022-08-07T06:13:16.534Z,66.00
2022-08-07T06:15:16.580Z,66.00
2022-08-07T06:17:16.536Z,66.00
2022-08-07T06:19:17.611Z,66.00
2022-08-07T06:22:15.646Z,65.00
2022-08-07T06:23:45.799Z,65.00
2022-08-07T06:25:16.652Z,65.00
2022-08-07T06:27:22.790Z,65.00
2022-08-07T06:29:16.655Z,65.00
2022-08-07T06:31:16.568Z,64.00
2022-08-07T06:33:16.979Z,64.00
2022-08-07T06:35:18.028Z,64.00
2022-08-07T06:40:18.366Z,64.00
2022-08-07T06:42:00.716Z,63.00
2022-08-07T06:43:25.179Z,64.00
2022-08-07T06:45:25.201Z,63.00
2022-08-07T06:47:25.100Z,63.00
2022-08-07T06:49:25.089Z,63.00
2022-08-07T06:51:33.047Z,62.00
2022-08-07T06:55:28.955Z,62.00
2022-08-07T06:55:32.877Z,62.00
2022-08-07T06:57:39.882Z,62.00
2022-08-07T07:00:14.595Z,61.00
2022-08-07T07:01:25.133Z,61.00
2022-08-07T07:03:26.502Z,60.00
2022-08-07T07:06:03.843Z,60.00
2022-08-07T07:07:59.202Z,60.00
2022-08-07T07:09:25.093Z,59.00
2022-08-07T07:12:08.869Z,59.00
2022-08-07T07:13:55.680Z,58.00
2022-08-07T07:15:26.307Z,58.00
2022-08-07T07:17:25.107Z,57.00
2022-08-07T07:19:55.020Z,57.00
2022-08-07T07:21:27.165Z,56.00
2022-08-07T07:24:10.429Z,56.00
2022-08-07T07:26:31.639Z,57.00
2022-08-07T07:27:25.122Z,56.00
2022-08-07T07:29:40.493Z,56.00
2022-08-07T07:31:25.124Z,55.00
2022-08-07T07:33:25.119Z,55.00
2022-08-07T07:35:25.205Z,55.00
2022-08-07T07:37:45.075Z,55.00
2022-08-07T07:39:25.489Z,54.00
2022-08-07T07:41:30.933Z,54.00
2022-08-07T07:43:27.629Z,54.00
2022-08-07T07:46:39.946Z,55.00
2022-08-07T07:47:25.179Z,55.00
2022-08-07T07:50:34.944Z,53.00
2022-08-07T07:51:25.130Z,53.00
2022-08-07T07:53:25.875Z,53.00
2022-08-07T07:55:25.164Z,52.00
2022-08-07T07:57:43.909Z,52.00
2022-08-07T07:59:51.658Z,52.00
2022-08-07T08:02:03.943Z,52.00
2022-08-07T08:04:10.611Z,52.00
2022-08-07T08:05:30.284Z,51.00
2022-08-07T08:07:35.842Z,51.00
2022-08-07T08:09:25.143Z,50.00
2022-08-07T08:11:59.184Z,50.00
2022-08-07T08:13:25.136Z,49.00
2022-08-07T08:15:25.186Z,50.00
2022-08-07T08:17:57.501Z,50.00
2022-08-07T08:20:19.263Z,50.00
2022-08-07T08:22:03.220Z,49.00
2022-08-07T08:23:55.186Z,50.00
2022-08-07T08:25:56.154Z,49.00
2022-08-07T08:27:57.458Z,49.00
2022-08-07T08:29:55.848Z,49.00
2022-08-07T08:32:17.153Z,47.00
2022-08-07T08:33:55.491Z,48.00
2022-08-07T08:35:55.187Z,47.00
2022-08-07T08:37:59.431Z,47.00
2022-08-07T08:39:58.375Z,47.00
2022-08-07T08:41:58.376Z,47.00
2022-08-07T08:43:58.654Z,47.00
2022-08-07T08:45:59.197Z,47.00
2022-08-07T08:47:55.354Z,47.00
2022-08-07T08:50:02.964Z,47.00
2022-08-07T08:52:13.304Z,47.00
2022-08-07T08:53:55.177Z,47.00
2022-08-07T08:55:58.474Z,47.00
2022-08-07T08:57:55.198Z,47.00
2022-08-07T08:59:55.271Z,47.00
2022-08-07T09:01:59.590Z,47.00
2022-08-07T09:03:55.465Z,47.00
2022-08-07T09:05:55.199Z,47.00
2022-08-07T09:07:58.078Z,47.00
2022-08-07T09:09:57.250Z,47.00
2022-08-07T09:12:01.697Z,46.00
2022-08-07T09:13:55.281Z,47.00
2022-08-07T09:16:24.603Z,47.00
2022-08-07T09:17:59.337Z,47.00
2022-08-07T09:19:55.551Z,48.00
2022-08-07T09:22:09.813Z,48.00
2022-08-07T09:24:32.969Z,48.00
2022-08-07T09:25:55.252Z,48.00
2022-08-07T09:28:01.310Z,48.00
2022-08-07T09:30:05.999Z,47.00
2022-08-07T09:31:55.286Z,47.00
2022-08-07T09:33:57.885Z,46.00
2022-08-07T09:36:01.225Z,46.00
2022-08-07T09:37:55.277Z,45.00
2022-08-07T09:39:57.973Z,46.00
2022-08-07T09:42:03.009Z,45.00
2022-08-07T09:44:05.952Z,45.00
2022-08-07T09:47:23.774Z,45.00
2022-08-07T09:48:01.690Z,45.00
2022-08-07T09:50:02.769Z,45.00
2022-08-07T09:52:16.788Z,46.00
2022-08-07T09:53:59.348Z,46.00
2022-08-07T09:56:04.677Z,45.00
2022-08-07T09:57:55.259Z,45.00
2022-08-07T10:00:01.337Z,46.00
2022-08-07T10:01:55.339Z,45.00
2022-08-07T10:04:03.758Z,45.00
2022-08-07T10:05:59.901Z,45.00
2022-08-07T10:07:55.685Z,45.00
2022-08-07T10:10:00.355Z,46.00
2022-08-07T10:12:01.779Z,45.00
2022-08-07T10:14:01.837Z,45.00
2022-08-07T10:15:55.262Z,45.00
2022-08-07T10:18:01.135Z,46.00
2022-08-07T10:19:55.310Z,46.00
2022-08-07T10:22:15.717Z,46.00
2022-08-07T10:24:25.313Z,45.00
2022-08-07T10:26:25.280Z,45.00
2022-08-07T10:28:25.325Z,45.00
2022-08-07T10:30:26.524Z,45.00
2022-08-07T10:32:51.144Z,45.00
2022-08-07T10:34:27.187Z,45.00
2022-08-07T10:36:29.455Z,45.00
2022-08-07T10:38:48.010Z,45.00
2022-08-07T10:40:30.260Z,44.00
2022-08-07T10:42:31.299Z,44.00
2022-08-07T10:44:33.779Z,43.00
2022-08-07T10:46:25.340Z,43.00
2022-08-07T10:48:25.375Z,44.00
2022-08-07T10:50:26.037Z,44.00
2022-08-07T10:52:31.825Z,43.00
2022-08-07T10:54:25.390Z,43.00
2022-08-07T10:56:31.040Z,43.00
2022-08-07T10:58:33.230Z,42.00
2022-08-07T11:00:39.495Z,42.00
2022-08-07T11:02:33.544Z,43.00
2022-08-07T11:04:31.854Z,43.00
2022-08-07T11:06:26.904Z,44.00
2022-08-07T11:08:30.221Z,41.00
2022-08-07T11:10:27.576Z,41.00
2022-08-07T11:12:32.087Z,41.00
2022-08-07T11:14:45.086Z,41.00
2022-08-07T11:16:29.966Z,41.00
2022-08-07T11:18:25.313Z,41.00
2022-08-07T11:20:25.362Z,41.00
2022-08-07T11:22:33.343Z,41.00
2022-08-07T11:24:25.318Z,41.00
2022-08-07T11:26:25.356Z,41.00
2022-08-07T11:28:25.326Z,40.00
2022-08-07T11:30:41.382Z,40.00
2022-08-07T11:32:26.444Z,40.00
2022-08-07T11:34:25.339Z,39.00
2022-08-07T11:36:30.890Z,40.00
2022-08-07T11:38:28.186Z,39.00
2022-08-07T11:40:27.647Z,39.00
2022-08-07T11:42:29.754Z,39.00
2022-08-07T11:44:25.442Z,39.00
2022-08-07T11:46:25.330Z,40.00
2022-08-07T11:48:29.807Z,39.00
2022-08-07T11:50:32.853Z,39.00
2022-08-07T11:52:29.409Z,39.00
2022-08-07T11:54:25.680Z,39.00
2022-08-07T11:56:27.992Z,39.00
2022-08-07T11:58:33.185Z,39.00
2022-08-07T12:00:28.399Z,39.00
2022-08-07T12:02:30.487Z,39.00
2022-08-07T12:04:25.339Z,39.00
2022-08-07T12:06:39.224Z,39.00
2022-08-07T12:08:31.363Z,39.00
2022-08-07T12:10:25.417Z,39.00
2022-08-07T12:12:25.382Z,39.00
2022-08-07T12:14:25.384Z,39.00
2022-08-07T12:16:29.665Z,38.00
2022-08-07T12:18:29.855Z,38.00
2022-08-07T12:20:30.791Z,38.00
2022-08-07T12:22:56.340Z,38.00
2022-08-07T12:24:37.079Z,39.00
2022-08-07T12:26:29.896Z,39.00
2022-08-07T12:28:31.201Z,39.00
2022-08-07T12:30:55.373Z,39.00
2022-08-07T12:32:55.364Z,39.00
2022-08-07T12:34:56.072Z,39.00
2022-08-07T12:36:55.378Z,38.00
2022-08-07T12:38:57.287Z,38.00
2022-08-07T12:40:55.699Z,39.00
2022-08-07T12:42:57.398Z,39.00
2022-08-07T12:44:55.404Z,40.00
2022-08-07T12:46:55.381Z,40.00
2022-08-07T12:48:55.441Z,40.00
2022-08-07T12:50:55.414Z,39.00
2022-08-07T12:52:55.411Z,39.00
2022-08-07T12:54:57.329Z,39.00
2022-08-07T12:56:55.453Z,39.00
2022-08-07T12:58:58.099Z,38.00
2022-08-07T13:00:56.773Z,38.00
2022-08-07T13:02:55.413Z,38.00
2022-08-07T13:05:01.600Z,39.00
2022-08-07T13:07:01.141Z,39.00
2022-08-07T13:08:55.414Z,40.00
2022-08-07T13:10:55.812Z,39.00
2022-08-07T13:12:56.105Z,39.00
2022-08-07T13:14:55.490Z,39.00
2022-08-07T13:16:55.423Z,39.00
2022-08-07T13:18:55.477Z,38.00
2022-08-07T13:20:55.431Z,39.00
2022-08-07T13:22:55.427Z,39.00
2022-08-07T13:24:55.437Z,39.00
2022-08-07T13:26:55.604Z,39.00
2022-08-07T13:28:58.227Z,39.00
2022-08-07T13:31:01.709Z,40.00
2022-08-07T13:32:55.498Z,39.00
2022-08-07T13:34:55.503Z,39.00
2022-08-07T13:36:55.496Z,39.00
2022-08-07T13:38:55.523Z,39.00
2022-08-07T13:40:56.027Z,39.00
2022-08-07T13:42:55.435Z,39.00
2022-08-07T13:46:06.174Z,39.00
2022-08-07T13:46:55.519Z,39.00
2022-08-07T13:48:58.539Z,40.00
2022-08-07T13:51:27.447Z,39.00
2022-08-07T13:53:10.097Z,39.00
2022-08-07T13:55:10.898Z,39.00
2022-08-07T13:57:10.103Z,39.00
2022-08-07T13:59:12.110Z,39.00
2022-08-07T14:01:10.170Z,39.00
2022-08-07T14:03:10.272Z,39.00
2022-08-07T14:05:10.333Z,40.00
2022-08-07T14:07:10.273Z,39.00
2022-08-07T14:09:16.957Z,39.00
2022-08-07T14:11:14.939Z,39.00
2022-08-07T14:13:10.125Z,39.00
2022-08-07T14:15:10.178Z,39.00
2022-08-07T14:17:51.630Z,40.00
2022-08-07T14:19:10.225Z,39.00
2022-08-07T14:21:20.936Z,39.00
2022-08-07T14:23:13.237Z,39.00
2022-08-07T14:25:10.951Z,39.00
2022-08-07T14:28:09.167Z,39.00
2022-08-07T14:30:05.462Z,39.00
2022-08-07T14:31:10.183Z,39.00
2022-08-07T14:33:10.298Z,40.00
2022-08-07T14:35:10.249Z,40.00
2022-08-07T14:37:16.645Z,39.00
2022-08-07T14:39:12.474Z,39.00
2022-08-07T14:41:12.454Z,39.00
2022-08-07T14:45:20.824Z,39.00
2022-08-07T14:47:14.590Z,39.00
2022-08-07T14:49:56.057Z,39.00
2022-08-07T14:53:10.339Z,39.00
2022-08-07T14:55:10.158Z,40.00
2022-08-07T14:57:10.253Z,40.00
2022-08-07T14:59:13.743Z,40.00
2022-08-07T15:03:18.930Z,39.00
2022-08-07T15:05:19.793Z,40.00
2022-08-07T15:07:17.836Z,40.00
2022-08-07T15:09:58.463Z,40.00
2022-08-07T15:11:10.270Z,40.00
2022-08-07T15:13:11.664Z,41.00
2022-08-07T15:15:21.392Z,41.00
2022-08-07T15:19:10.255Z,41.00
2022-08-07T15:21:44.467Z,40.00
2022-08-07T15:23:17.015Z,40.00
2022-08-07T15:25:17.977Z,41.00
2022-08-07T15:27:10.187Z,41.00
2022-08-07T15:30:10.050Z,41.00
2022-08-07T15:31:10.213Z,40.00
2022-08-07T15:33:19.410Z,41.00
2022-08-07T15:35:10.200Z,41.00
2022-08-07T15:37:10.209Z,41.00
2022-08-07T15:39:56.424Z,40.00
2022-08-07T15:43:55.614Z,40.00
2022-08-07T15:45:58.322Z,40.00
2022-08-07T15:47:59.958Z,41.00
2022-08-07T15:50:03.923Z,41.00
2022-08-07T15:53:52.137Z,40.00
2022-08-07T15:55:53.762Z,40.00
2022-08-07T15:57:48.584Z,41.00
2022-08-07T15:59:44.084Z,41.00
2022-08-07T16:01:40.271Z,41.00
2022-08-07T16:03:47.260Z,40.00
2022-08-07T16:05:40.277Z,41.00
2022-08-07T16:08:32.211Z,41.00
2022-08-07T16:09:41.973Z,41.00
2022-08-07T16:11:41.674Z,41.00
2022-08-07T16:13:59.838Z,41.00
2022-08-07T16:15:55.049Z,41.00
2022-08-07T16:18:00.808Z,42.00
2022-08-07T16:19:42.989Z,42.00
2022-08-07T16:22:01.418Z,41.00
2022-08-07T16:23:54.635Z,42.00
2022-08-07T16:25:54.045Z,41.00
2022-08-07T16:27:41.550Z,41.00
2022-08-07T16:30:09.869Z,41.00
2022-08-07T16:31:50.919Z,41.00
2022-08-07T16:34:03.083Z,41.00
2022-08-07T16:35:51.553Z,41.00
2022-08-07T16:38:06.926Z,41.00
2022-08-07T16:39:49.097Z,41.00
2022-08-07T16:41:41.260Z,41.00
2022-08-07T16:44:05.577Z,41.00
2022-08-07T16:46:47.650Z,41.00
2022-08-07T16:47:52.950Z,41.00
2022-08-07T16:50:27.053Z,41.00
2022-08-07T16:51:54.470Z,41.00
2022-08-07T16:54:01.942Z,41.00
2022-08-07T16:55:43.672Z,41.00
2022-08-07T16:58:02.867Z,41.00
2022-08-07T16:59:45.848Z,41.00
2022-08-07T17:01:41.238Z,40.00
2022-08-07T17:03:58.069Z,41.00
2022-08-07T17:06:19.849Z,41.00
2022-08-07T17:07:55.613Z,40.00
2022-08-07T17:10:05.472Z,41.00
2022-08-07T17:12:03.951Z,41.00
2022-08-07T17:14:17.573Z,41.00
2022-08-07T17:15:43.889Z,41.00
2022-08-07T17:17:46.667Z,41.00
2022-08-07T17:20:02.935Z,41.00
2022-08-07T17:21:50.751Z,41.00
2022-08-07T17:23:40.305Z,41.00
2022-08-07T17:25:51.106Z,41.00
2022-08-07T17:27:51.050Z,40.00
2022-08-07T17:30:14.411Z,40.00
2022-08-07T17:31:44.304Z,40.00
2022-08-07T17:34:15.135Z,40.00
2022-08-07T17:35:54.962Z,40.00
2022-08-07T17:38:09.365Z,41.00
2022-08-07T17:39:57.727Z,41.00
2022-08-07T17:42:03.778Z,41.00
2022-08-07T17:44:14.708Z,41.00
2022-08-07T17:46:10.372Z,41.00
2022-08-07T17:48:12.834Z,41.00
2022-08-07T17:50:16.460Z,41.00
2022-08-07T17:52:12.739Z,41.00
2022-08-07T17:54:11.475Z,41.00
2022-08-07T17:56:15.368Z,41.00
2022-08-07T17:58:10.406Z,41.00
2022-08-07T18:00:11.295Z,41.00
2022-08-07T18:02:10.906Z,41.00
2022-08-07T18:04:16.519Z,41.00
2022-08-07T18:06:16.666Z,41.00
2022-08-07T18:08:16.377Z,41.00
2022-08-07T18:10:28.584Z,42.00
2022-08-07T18:12:19.948Z,42.00
2022-08-07T18:14:10.374Z,42.00
2022-08-07T18:16:10.399Z,42.00
2022-08-07T18:19:02.737Z,42.00
2022-08-07T18:21:11.699Z,42.00
2022-08-07T18:22:16.931Z,42.00
2022-08-07T18:24:10.383Z,43.00
2022-08-07T18:26:15.229Z,42.00
2022-08-07T18:28:15.042Z,42.00
2022-08-07T18:30:32.636Z,42.00
2022-08-07T18:32:10.411Z,42.00
2022-08-07T18:34:40.746Z,42.00
2022-08-07T18:36:10.440Z,42.00
2022-08-07T18:38:58.483Z,42.00
2022-08-07T18:40:18.239Z,42.00
2022-08-07T18:42:13.070Z,43.00
2022-08-07T18:44:10.459Z,43.00
2022-08-07T18:46:25.392Z,43.00
2022-08-07T18:48:10.477Z,44.00
2022-08-07T18:50:39.739Z,44.00
2022-08-07T18:52:41.062Z,44.00
2022-08-07T18:54:30.818Z,44.00
2022-08-07T18:56:12.515Z,44.00
2022-08-07T18:58:15.056Z,45.00
2022-08-07T19:00:32.545Z,45.00
2022-08-07T19:02:32.519Z,44.00
2022-08-07T19:04:13.743Z,45.00
2022-08-07T19:06:10.468Z,45.00
2022-08-07T19:08:10.393Z,45.00
2022-08-07T19:10:18.193Z,46.00
2022-08-07T19:12:10.406Z,46.00
2022-08-07T19:14:11.497Z,47.00
2022-08-07T19:17:00.625Z,47.00
2022-08-07T19:18:11.532Z,47.00
2022-08-07T19:20:29.390Z,47.00
2022-08-07T19:22:11.154Z,48.00
2022-08-07T19:24:10.418Z,48.00
2022-08-07T19:26:23.395Z,49.00
2022-08-07T19:28:57.906Z,49.00
2022-08-07T19:31:05.331Z,50.00
2022-08-07T19:32:17.107Z,50.00
2022-08-07T19:34:10.511Z,50.00
2022-08-07T19:36:10.487Z,50.00
2022-08-07T19:38:16.038Z,50.00
2022-08-07T19:40:10.541Z,50.00
2022-08-07T19:42:22.325Z,51.00
2022-08-07T19:44:21.794Z,51.00
2022-08-07T19:46:10.790Z,51.00
2022-08-07T19:48:18.359Z,51.00
2022-08-07T19:50:45.089Z,51.00
2022-08-07T19:52:42.027Z,51.00
2022-08-07T19:54:55.930Z,51.00
2022-08-07T19:57:52.083Z,51.00
2022-08-07T19:58:44.865Z,51.00
2022-08-07T20:00:40.453Z,51.00
2022-08-07T20:02:40.419Z,52.00
2022-08-07T20:04:40.552Z,52.00
2022-08-07T20:06:43.012Z,53.00
2022-08-07T20:08:45.145Z,53.00
2022-08-07T20:10:54.403Z,53.00
2022-08-07T20:12:42.802Z,53.00
2022-08-07T20:14:54.155Z,54.00
2022-08-07T20:16:40.443Z,54.00
2022-08-07T20:18:40.687Z,54.00
2022-08-07T20:20:40.502Z,54.00
2022-08-07T20:22:40.817Z,55.00
2022-08-07T20:24:40.619Z,55.00
2022-08-07T20:26:46.057Z,55.00
2022-08-07T20:28:40.429Z,55.00
2022-08-07T20:30:40.539Z,55.00
2022-08-07T20:32:40.934Z,55.00
2022-08-07T20:34:50.801Z,56.00
2022-08-07T20:36:40.599Z,56.00
2022-08-07T20:38:59.358Z,55.00
2022-08-07T20:40:41.334Z,55.00
2022-08-07T20:42:40.553Z,55.00
2022-08-07T20:44:40.558Z,55.00
2022-08-07T20:46:44.333Z,55.00
2022-08-07T20:48:57.885Z,55.00
2022-08-07T20:50:40.686Z,55.00
2022-08-07T20:52:51.118Z,55.00
2022-08-07T20:54:45.547Z,54.00
2022-08-07T20:58:40.523Z,55.00
2022-08-07T21:04:48.723Z,56.00
2022-08-07T21:06:53.645Z,55.00
2022-08-07T21:08:48.717Z,54.00
2022-08-07T21:10:48.759Z,53.00
2022-08-07T21:12:48.724Z,53.00
2022-08-07T21:14:53.575Z,53.00
2022-08-07T21:16:56.753Z,53.00
2022-08-07T21:18:50.506Z,54.00
2022-08-07T21:20:56.372Z,54.00
2022-08-07T21:22:51.236Z,54.00
2022-08-07T21:24:49.035Z,54.00
2022-08-07T21:26:48.797Z,54.00
2022-08-07T21:28:50.929Z,54.00
2022-08-07T21:30:48.715Z,53.00
2022-08-07T21:32:52.270Z,53.00
2022-08-07T21:34:48.994Z,53.00
2022-08-07T21:36:50.420Z,53.00
2022-08-07T21:38:49.863Z,53.00
2022-08-07T21:40:49.482Z,54.00
2022-08-07T21:42:48.947Z,54.00
2022-08-07T21:44:51.022Z,53.00
2022-08-07T21:46:48.759Z,53.00
2022-08-07T21:48:56.595Z,53.00
2022-08-07T21:50:48.724Z,53.00
2022-08-07T21:52:48.748Z,53.00
2022-08-07T21:54:48.775Z,54.00
2022-08-07T21:56:49.290Z,54.00
2022-08-07T21:58:48.725Z,54.00
2022-08-07T22:00:48.726Z,54.00
2022-08-07T22:02:48.775Z,54.00
2022-08-07T22:04:53.638Z,55.00
2022-08-07T22:06:49.697Z,55.00
2022-08-07T22:08:48.743Z,56.00
2022-08-07T22:10:48.732Z,56.00
2022-08-07T22:12:49.591Z,56.00
2022-08-07T22:14:59.864Z,57.00
2022-08-07T22:16:48.742Z,56.00
2022-08-07T22:18:48.754Z,57.00
2022-08-07T22:20:48.741Z,57.00
2022-08-07T22:22:49.301Z,57.00
2022-08-07T22:25:18.745Z,57.00
2022-08-07T22:27:18.765Z,57.00
2022-08-07T22:29:18.745Z,57.00
2022-08-07T22:31:59.461Z,57.00
2022-08-07T22:33:18.763Z,57.00
2022-08-07T22:35:18.865Z,58.00
2022-08-07T22:37:18.750Z,58.00
2022-08-07T22:39:18.861Z,59.00
2022-08-07T22:41:20.089Z,59.00
2022-08-07T22:43:18.771Z,59.00
2022-08-07T22:46:04.547Z,61.00
2022-08-07T22:47:18.761Z,61.00
2022-08-07T22:49:18.779Z,60.00
2022-08-07T22:51:18.862Z,61.00
2022-08-07T22:53:18.780Z,61.00
2022-08-07T22:55:23.005Z,61.00
2022-08-07T22:57:18.795Z,61.00
2022-08-07T22:59:18.771Z,61.00
2022-08-07T23:01:18.769Z,61.00
2022-08-07T23:03:18.879Z,62.00
2022-08-07T23:06:14.979Z,62.00
2022-08-07T23:07:40.100Z,62.00
2022-08-07T23:10:05.526Z,62.00
2022-08-07T23:11:18.790Z,62.00
2022-08-07T23:13:18.782Z,62.00
2022-08-07T23:15:21.968Z,63.00
2022-08-07T23:17:20.325Z,63.00
2022-08-07T23:19:19.484Z,64.00
2022-08-07T23:21:18.782Z,64.00
2022-08-07T23:24:05.425Z,64.00
2022-08-07T23:25:18.785Z,64.00
2022-08-07T23:27:18.795Z,64.00
2022-08-07T23:29:43.735Z,64.00
2022-08-07T23:32:48.851Z,64.00
2022-08-07T23:34:23.499Z,64.00
2022-08-07T23:35:18.824Z,64.00
2022-08-07T23:37:22.636Z,65.00
2022-08-07T23:39:22.162Z,65.00
2022-08-07T23:41:18.817Z,65.00
2022-08-07T23:43:18.814Z,65.00
2022-08-07T23:45:33.438Z,65.00
2022-08-07T23:47:18.870Z,65.00
2022-08-07T23:49:18.818Z,65.00
2022-08-07T23:52:55.963Z,65.00
2022-08-07T23:53:19.393Z,66.00
2022-08-07T23:55:52.052Z,66.00
2022-08-07T23:57:18.842Z,66.00
